KBFI

Boeing Field / King County International Airport

Seattle, Washington, USA
METAR KBFI 251853Z VRB04KT 10SM FEW070 SCT200 18/09 A3029 RMK AO2 SLP257 T01780094
Observed Flight Rules
Sep-25 @ 18:53 UTC (9 minutes ago) Visual Flight Rules
Wind Visibility Clouds
Variable at 4 knots 10 miles
  • Few at 7,000' AGL
  • Scattered at 20,000' AGL
Temperatures Readings
Current 18°C / 64°F
Dewpoint 9°C / 48°F
Humidity 56%
Altimeter 30.29" Hg
Pressure 1025.7 hPa
Elevation 4
METAR KBFI 251853Z VRB04KT 10SM FEW070 SCT200 18/09 A3029 RMK AO2 SLP257 T01780094
Observed Flight Rules
Sep-25 @ 18:53 UTC
(9 minutes ago)
VFR
Wind Visibility
Variable at 4 knots 10 miles
Clouds
  • Few at 7,000' AGL
  • Scattered at 20,000' AGL
Temperature Dewpoint
18°C / 64°F 9°C / 48°F
Humidity Altimeter Pressure
56% 30.29" Hg 1025.7 hPa